Aeroporto :
LOGIN :

Iscrizione | Disclaimer

   EN    FR    IT 

 










Sommario :    VFR   VFR Marginale   IFR   IFR Intensivo   IFR Molto Intensivo
Visibilità : 
Base nubi : 
>= 8 km
>= 3000ft
5 / 8 km
1000 / 3000 ft
1500m / 5 km
500 / 1000 ft
800 / 1500m
200 / 500 ft
< 800m
< 200 ft
Simboli :   Temporali  Nebbia  Neve Forte  Precipitazioni Forti  Vento > 20 kt
SIGMETs :   Varie  Temporali  Ghiacco  Turbolenza  Onda orograficha  Ceneri Vulcaniche







- Altitudine del aeroporto : 784 ft
- Codice IATA : TZL


LQTZ - Tuzla

ULTIMO METAR :
  • 252100Z 01011KT 9999 -RA BKN035 08/04 Q1015

METARs OBSOLETI :
  • 252000Z 06008KT 020V090 9999 SCT045 12/02 Q1013
  • 251930Z 06009KT 010V100 9999 SCT045 12/01 Q1012
  • 251900Z 05011KT 020V090 9999 SCT045 12/01 Q1011

TAF TAF LQTZ
Valido dal 25 a 18 ore il 26 a 18 ore UTC


251700Z 2518/2618 34006KT 9999 SCT040 TX12/2518Z TN03/2605Z
TEMPO 2518/2524 07012KT
PROB40
TEMPO 2520/2523 03015G25KT 5000 SHRA FEW030TCU BKN040
TEMPO 2523/2610 3000 RA BKN014 OVC030
Nessun NOTAM noto per questo aeroporto.



MetMap, La meteo Aeronautica in un colpo d'occhio ! - Copyright ORBIFLY Dicembre 2007 - Disclaimer

ORBIFLY MET'MAP TEAM :

Programmazione e sviluppo : Alexandra Zaïnal
Concezione e sviluppo : Baudouin d'Aumeries
Co-Programmazione e sviluppo : Marc-Olivier Méhu
Supporto tecnico e logistico : Manuel Goepfert
Aiuto per la traduzione : Arnaldo La Scala

Contatto : metmap@orbifly.com




FONTI E CREDITI :

   NOAA